Time;durP1;ratioP1;P1;durP2;ratioP2;P2;SDS_P1;SDS_P2;PMS_P1;PMS_P2;Temp;Humidity;BMP_temperature;BMP_pressure;BME280_temperature;BME280_humidity;BME280_pressure;Samples;Min_cycle;Max_cycle;Signal;HPM_P1;HPM_P2
2022/03/13 05:26:49;;;;;;;;;;;8.00;1.00;;;;;;3668802;27;42192201;-73
2022/03/13 05:29:15;;;;;;;;;;;;;;;;;;5172861;27;19911;-72
2022/03/13 05:31:40;;;;;;;;;;;8.00;1.00;;;;;;5171516;27;20266;-73
2022/03/13 05:34:07;;;;;;;;;;;7.90;1.00;;;;;;5172262;27;19907;-73
2022/03/13 05:36:32;;;;;;;;;;;8.00;1.00;;;;;;5171623;27;20005;-73
2022/03/13 05:38:58;;;;;;;;;;;7.80;1.00;;;;;;5154212;27;19950;-73
2022/03/13 05:41:25;;;;;;;;;;;7.90;1.00;;;;;;5171305;27;19914;-73
2022/03/13 05:43:50;;;;;;;;;;;7.90;1.00;;;;;;5153336;27;19918;-73
2022/03/13 05:46:16;;;;;;;;;;;;;;;;;;5171995;27;19911;-77
2022/03/13 05:48:42;;;;;;;;;;;8.00;1.00;;;;;;5171457;27;20297;-73
2022/03/13 05:51:07;;;;;;;;;;;8.00;1.00;;;;;;5171770;27;19956;-73
2022/03/13 05:53:33;;;;;;;;;;;8.10;1.00;;;;;;5171021;27;19907;-73
2022/03/13 05:55:58;;;;;;;;;;;8.10;1.00;;;;;;5152818;27;19960;-73
2022/03/13 05:58:24;;;;;;;;;;;8.10;1.00;;;;;;5170928;27;19911;-73
2022/03/13 06:01:04;;;;;;;;;;;;;;;;;;5171729;27;19918;-72
2022/03/13 06:03:30;;;;;;;;;;;;;;;;;;5152200;27;19942;-73
2022/03/13 06:05:56;;;;;;;;;;;8.20;1.00;;;;;;5153094;27;20341;-73
2022/03/13 06:08:22;;;;;;;;;;;;;;;;;;5170748;27;19911;-75
2022/03/13 06:10:48;;;;;;;;;;;8.10;1.00;;;;;;5171515;27;19907;-72
2022/03/13 06:13:14;;;;;;;;;;;8.10;1.00;;;;;;5171399;27;19922;-72
2022/03/13 06:15:40;;;;;;;;;;;;;;;;;;5170619;27;19989;-73
2022/03/13 06:18:05;;;;;;;;;;;8.30;1.00;;;;;;5152200;27;19940;-73
2022/03/13 06:20:31;;;;;;;;;;;8.20;1.00;;;;;;5170464;27;20282;-73
2022/03/13 06:22:58;;;;;;;;;;;8.20;1.00;;;;;;5171195;27;19914;-72
2022/03/13 06:25:24;;;;;;;;;;;8.40;1.00;;;;;;5151194;27;20382;-72
2022/03/13 06:27:50;;;;;;;;;;;;;;;;;;5171368;27;19918;-74
2022/03/13 06:30:20;;;;;;;;;;;8.40;1.00;;;;;;5171068;27;19907;-72
2022/03/13 06:32:47;;;;;;;;;;;8.40;1.00;;;;;;5170640;27;19907;-71
2022/03/13 06:35:13;;;;;;;;;;;8.40;1.00;;;;;;5157043;27;19956;-71
2022/03/13 06:37:39;;;;;;;;;;;8.60;1.00;;;;;;5148258;27;19911;-72
2022/03/13 06:40:06;;;;;;;;;;;8.50;1.00;;;;;;5147133;27;19933;-71
2022/03/13 06:42:32;;;;;;;;;;;8.50;1.00;;;;;;5149289;27;19915;-71
2022/03/13 06:44:58;;;;;;;;;;;8.50;1.00;;;;;;5147936;27;19934;-70
2022/03/13 06:47:24;;;;;;;;;;;;;;;;;;5117103;27;20363;-76
2022/03/13 06:49:50;;;;;;;;;;;;;;;;;;5135987;27;19947;-70
2022/03/13 06:52:16;;;;;;;;;;;8.50;1.00;;;;;;5136178;27;19922;-70
2022/03/13 06:54:43;;;;;;;;;;;8.40;1.00;;;;;;5135019;27;19998;-70
2022/03/13 06:57:08;;;;;;;;;;;8.60;1.00;;;;;;5136293;27;19952;-69
2022/03/13 06:59:34;;;;;;;;;;;8.60;1.00;;;;;;5138532;27;20384;-68
2022/03/13 07:02:00;;;;;;;;;;;;;;;;;;5149840;27;20296;-68
2022/03/13 07:04:26;;;;;;;;;;;;;;;;;;5155657;27;19907;-72
2022/03/13 07:06:52;;;;;;;;;;;;;;;;;;5156430;27;19907;-69
2022/03/13 07:09:17;;;;;;;;;;;;;;;;;;5156475;27;19969;-69
2022/03/13 07:11:47;;;;;;;;;;;;;;;;;;5142294;27;19911;-69
2022/03/13 07:14:13;;;;;;;;;;;8.60;1.00;;;;;;5135622;27;19908;-67
2022/03/13 07:16:39;;;;;;;;;;;8.60;1.00;;;;;;5134730;27;19948;-71
2022/03/13 07:19:04;;;;;;;;;;;8.70;1.00;;;;;;5135398;27;19952;-69
2022/03/13 07:21:30;;;;;;;;;;;;;;;;;;5134772;27;19911;-70
2022/03/13 07:23:56;;;;;;;;;;;8.90;1.00;;;;;;5144672;27;19955;-70
2022/03/13 07:26:21;;;;;;;;;;;9.00;1.00;;;;;;5156989;27;20367;-72
2022/03/13 07:28:47;;;;;;;;;;;8.90;1.00;;;;;;5155282;27;20271;-69
2022/03/13 07:31:12;;;;;;;;;;;9.20;1.00;;;;;;5151085;27;20309;-68
2022/03/13 07:33:38;;;;;;;;;;;9.10;1.00;;;;;;5116128;27;19907;-70
2022/03/13 07:36:03;;;;;;;;;;;9.20;1.00;;;;;;5135639;27;19956;-72
2022/03/13 07:38:29;;;;;;;;;;;9.00;1.00;;;;;;5134598;27;20375;-70
2022/03/13 07:40:55;;;;;;;;;;;9.10;1.00;;;;;;5135198;27;19952;-68
2022/03/13 07:43:21;;;;;;;;;;;9.00;1.00;;;;;;5135326;27;19907;-70
2022/03/13 07:45:46;;;;;;;;;;;9.00;1.00;;;;;;5137687;27;19911;-67
2022/03/13 07:48:12;;;;;;;;;;;;;;;;;;5148389;27;19972;-70
2022/03/13 07:50:38;;;;;;;;;;;8.90;1.00;;;;;;5134177;27;19921;-67
2022/03/13 07:53:04;;;;;;;;;;;9.00;1.00;;;;;;5136190;27;19907;-69
2022/03/13 07:55:30;;;;;;;;;;;9.00;1.00;;;;;;5117964;27;19917;-69
2022/03/13 07:57:55;;;;;;;;;;;8.90;1.00;;;;;;5135153;27;19956;-68
2022/03/13 08:00:22;;;;;;;;;;;9.00;1.00;;;;;;5116393;27;20275;-68
2022/03/13 08:02:48;;;;;;;;;;;;;;;;;;5137775;27;19915;-69
2022/03/13 08:05:14;;;;;;;;;;;9.00;1.00;;;;;;5134499;27;19912;-68
2022/03/13 08:07:40;;;;;;;;;;;;;;;;;;5142673;27;19911;-68
2022/03/13 08:10:05;;;;;;;;;;;9.00;1.00;;;;;;5145841;27;20248;-67
2022/03/13 08:12:31;;;;;;;;;;;8.90;1.00;;;;;;5155784;27;19907;-68
2022/03/13 08:14:56;;;;;;;;;;;9.00;1.00;;;;;;5155416;27;20247;-68
2022/03/13 08:17:22;;;;;;;;;;;9.00;1.00;;;;;;5156242;27;19913;-68
2022/03/13 08:19:50;;;;;;;;;;;;;;;;;;5154569;27;20788;-69
2022/03/13 08:22:17;;;;;;;;;;;9.10;1.00;;;;;;5155504;27;19914;-69
2022/03/13 08:24:43;;;;;;;;;;;;;;;;;;5135691;27;20323;-71
2022/03/13 08:27:09;;;;;;;;;;;9.30;1.00;;;;;;5137600;27;19954;-68
2022/03/13 08:29:34;;;;;;;;;;;9.40;1.00;;;;;;5133481;27;20010;-69
2022/03/13 08:32:00;;;;;;;;;;;;;;;;;;5137756;27;20006;-68
2022/03/13 08:34:28;;;;;;;;;;;10.00;1.00;;;;;;5155207;27;20277;-69
2022/03/13 08:36:55;;;;;;;;;;;10.00;1.00;;;;;;5152299;27;19911;-69
2022/03/13 08:39:21;;;;;;;;;;;10.20;1.00;;;;;;5145433;27;20013;-69
2022/03/13 08:41:46;;;;;;;;;;;10.10;1.00;;;;;;5153867;27;19939;-70
2022/03/13 08:44:13;;;;;;;;;;;10.10;1.00;;;;;;5148990;27;20002;-70
2022/03/13 08:46:40;;;;;;;;;;;;;;;;;;5133434;27;20430;-70
2022/03/13 08:49:07;;;;;;;;;;;;;;;;;;5110995;27;19912;-71
2022/03/13 08:51:33;;;;;;;;;;;;;;;;;;5129617;27;19911;-73
2022/03/13 08:53:59;;;;;;;;;;;;;;;;;;5130322;27;19953;-70
2022/03/13 08:56:26;;;;;;;;;;;;;;;;;;5130123;27;20411;-69
2022/03/13 08:58:53;;;;;;;;;;;;;;;;;;5111010;27;19922;-69
2022/03/13 09:01:19;;;;;;;;;;;11.50;1.00;;;;;;5129309;27;19908;-70
2022/03/13 09:03:45;;;;;;;;;;;;;;;;;;5130104;27;19918;-72
2022/03/13 09:06:11;;;;;;;;;;;;;;;;;;5130541;27;20476;-71
2022/03/13 09:08:37;;;;;;;;;;;;;;;;;;5129372;27;19916;-70
2022/03/13 09:11:03;;;;;;;;;;;;;;;;;;5111638;27;19912;-71
2022/03/13 09:13:29;;;;;;;;;;;;;;;;;;5129570;27;20667;-73
2022/03/13 09:15:56;;;;;;;;;;;;;;;;;;5129486;27;19907;-70
2022/03/13 09:18:22;;;;;;;;;;;11.30;1.00;;;;;;5129980;27;19911;-70
2022/03/13 09:20:48;;;;;;;;;;;;;;;;;;5129498;27;20574;-70
2022/03/13 09:23:13;;;;;;;;;;;11.40;1.00;;;;;;5130511;27;19915;-70
2022/03/13 09:25:39;;;;;;;;;;;;;;;;;;5128548;27;20509;-72
2022/03/13 09:28:05;;;;;;;;;;;;;;;;;;5131226;28;19915;-69
2022/03/13 09:30:31;;;;;;;;;;;;;;;;;;5130126;28;19990;-74
2022/03/13 09:32:58;;;;;;;;;;;11.80;1.00;;;;;;5152821;27;19988;-69
2022/03/13 09:35:23;;;;;;;;;;;11.80;1.00;;;;;;5150109;27;19918;-69
2022/03/13 09:37:49;;;;;;;;;;;12.00;1.00;;;;;;5153760;27;20700;-69
2022/03/13 09:40:17;;;;;;;;;;;11.90;1.00;;;;;;5154046;27;20274;-69
2022/03/13 09:42:42;;;;;;;;;;;12.00;1.00;;;;;;5153282;27;19911;-69
2022/03/13 09:45:08;;;;;;;;;;;12.10;1.00;;;;;;5153745;27;20048;-69
2022/03/13 09:47:35;;;;;;;;;;;;;;;;;;5146812;27;19918;-74
2022/03/13 09:50:01;;;;;;;;;;;;;;;;;;5137599;27;19921;-69
2022/03/13 09:52:26;;;;;;;;;;;12.10;1.00;;;;;;5142511;27;19989;-69
2022/03/13 09:54:52;;;;;;;;;;;12.20;1.00;;;;;;5146196;27;20168;-69
2022/03/13 09:57:17;;;;;;;;;;;12.30;1.00;;;;;;5120941;28;19912;-69
2022/03/13 09:59:43;;;;;;;;;;;12.40;1.00;;;;;;5113869;28;19914;-69
2022/03/13 10:02:09;;;;;;;;;;;;;;;;;;5128896;28;20367;-70
2022/03/13 10:04:35;;;;;;;;;;;;;;;;;;5129102;28;19911;-74
2022/03/13 10:07:08;;;;;;;;;;;12.70;1.00;;;;;;5129900;28;19921;-70
2022/03/13 10:09:34;;;;;;;;;;;;;;;;;;5130142;28;19973;-73
2022/03/13 10:12:00;;;;;;;;;;;;;;;;;;5130613;27;20129;-70
2022/03/13 10:14:25;;;;;;;;;;;12.80;1.00;;;;;;5133434;27;20353;-69
2022/03/13 10:16:51;;;;;;;;;;;;;;;;;;5132660;27;20235;-70
2022/03/13 10:19:17;;;;;;;;;;;;;;;;;;5115532;27;20003;-69
2022/03/13 10:22:02;;;;;;;;;;;13.30;1.00;;;;;;5132753;27;19914;-69
2022/03/13 10:24:29;;;;;;;;;;;;;;;;;;5133073;27;19919;-69
2022/03/13 10:26:55;;;;;;;;;;;;;;;;;;5132074;27;20137;-70
2022/03/13 10:29:21;;;;;;;;;;;;;;;;;;5133076;27;20356;-69
2022/03/13 10:31:47;;;;;;;;;;;;;;;;;;5132467;27;19972;-70
2022/03/13 10:34:13;;;;;;;;;;;;;;;;;;5133167;27;20722;-70
2022/03/13 10:36:44;;;;;;;;;;;;;;;;;;5132004;27;19912;-74
2022/03/13 10:39:10;;;;;;;;;;;;;;;;;;5114710;27;19976;-70
2022/03/13 10:41:44;;;;;;;;;;;;;;;;;;5114313;27;20315;-74
2022/03/13 10:44:11;;;;;;;;;;;;;;;;;;5114846;27;19919;-69
2022/03/13 10:46:39;;;;;;;;;;;;;;;;;;5145062;27;19915;-73
2022/03/13 10:49:05;;;;;;;;;;;13.70;1.00;;;;;;5145046;27;19915;-67
2022/03/13 10:51:31;;;;;;;;;;;;;;;;;;5144428;27;20278;-69
2022/03/13 10:53:57;;;;;;;;;;;14.00;1.00;;;;;;5145228;27;20394;-70
2022/03/13 10:56:23;;;;;;;;;;;;;;;;;;5143583;27;20027;-70
2022/03/13 10:58:48;;;;;;;;;;;14.10;1.00;;;;;;5144450;27;20279;-69
2022/03/13 11:01:16;;;;;;;;;;;;;;;;;;5125165;27;19962;-68
2022/03/13 11:03:49;;;;;;;;;;;14.40;1.00;;;;;;5126257;27;20347;-70
2022/03/13 11:06:14;;;;;;;;;;;14.50;1.00;;;;;;5145703;27;19919;-70
2022/03/13 11:08:41;;;;;;;;;;;14.40;1.00;;;;;;5143283;27;19912;-70
2022/03/13 11:11:08;;;;;;;;;;;14.50;1.00;;;;;;5144634;27;20378;-66
2022/03/13 11:13:35;;;;;;;;;;;;;;;;;;5145818;27;20001;-66
2022/03/13 11:16:05;;;;;;;;;;;14.90;1.00;;;;;;5137603;27;20340;-69
2022/03/13 11:18:33;;;;;;;;;;;14.80;1.00;;;;;;5117067;27;19911;-70
2022/03/13 11:20:59;;;;;;;;;;;15.00;1.00;;;;;;5116306;27;19994;-70
2022/03/13 11:23:27;;;;;;;;;;;15.00;1.00;;;;;;5135358;27;19915;-69
2022/03/13 11:25:55;;;;;;;;;;;15.10;1.00;;;;;;5134317;27;19924;-70
2022/03/13 11:28:21;;;;;;;;;;;15.10;1.00;;;;;;5135177;27;19911;-69
2022/03/13 11:30:46;;;;;;;;;;;15.30;1.00;;;;;;5134529;27;19919;-70
2022/03/13 11:33:12;;;;;;;;;;;;;;;;;;5116774;27;20370;-71
2022/03/13 11:35:39;;;;;;;;;;;;;;;;;;5135041;27;19907;-75
2022/03/13 11:38:08;;;;;;;;;;;15.80;1.00;;;;;;5134881;27;19911;-69
2022/03/13 11:40:37;;;;;;;;;;;15.80;1.00;;;;;;5135109;27;20007;-70
2022/03/13 11:43:10;;;;;;;;;;;16.10;1.00;;;;;;5134599;27;19915;-70
2022/03/13 11:45:36;;;;;;;;;;;;;;;;;;5131566;27;19916;-72
2022/03/13 11:48:04;;;;;;;;;;;16.80;1.00;;;;;;5114349;27;19914;-70
2022/03/13 11:51:08;;;;;;;;;;;16.60;1.00;;;;;;5134961;27;19954;-70
2022/03/13 11:53:40;;;;;;;;;;;16.40;1.00;;;;;;5015068;28;19910;-69
2022/03/13 11:56:06;;;;;;;;;;;16.60;1.00;;;;;;5031194;28;20447;-70
2022/03/13 11:58:37;;;;;;;;;;;16.50;1.00;;;;;;5084054;27;19908;-69
2022/03/13 12:01:07;;;;;;;;;;;16.30;1.00;;;;;;5134118;27;19915;-69
2022/03/13 12:03:32;;;;;;;;;;;16.20;1.00;;;;;;5135031;27;19908;-70
2022/03/13 12:05:59;;;;;;;;;;;;;;;;;;5134498;27;20599;-70
2022/03/13 12:08:45;;;;;;;;;;;16.40;1.00;;;;;;5135179;27;19922;-70
2022/03/13 12:11:29;;;;;;;;;;;15.80;1.00;;;;;;5134354;27;20533;-70
2022/03/13 12:13:56;;;;;;;;;;;15.50;1.00;;;;;;5133748;27;19954;-70
2022/03/13 12:16:21;;;;;;;;;;;15.30;1.00;;;;;;5117429;27;19907;-70
2022/03/13 12:18:57;;;;;;;;;;;15.30;1.00;;;;;;5133315;27;19907;-70
2022/03/13 12:21:22;;;;;;;;;;;15.40;1.00;;;;;;5134355;27;19972;-71
2022/03/13 12:23:48;;;;;;;;;;;15.40;1.00;;;;;;5133533;27;20355;-70
2022/03/13 12:26:13;;;;;;;;;;;15.60;1.00;;;;;;5133955;27;19923;-70
2022/03/13 12:28:39;;;;;;;;;;;16.30;1.00;;;;;;5115251;27;19921;-70
2022/03/13 12:31:05;;;;;;;;;;;16.30;1.00;;;;;;5133509;27;20006;-70
2022/03/13 12:33:32;;;;;;;;;;;16.40;1.00;;;;;;5134174;27;19934;-70
2022/03/13 12:35:59;;;;;;;;;;;17.10;1.00;;;;;;5114367;27;19914;-71
2022/03/13 12:38:26;;;;;;;;;;;16.70;1.00;;;;;;5134045;27;19954;-70
2022/03/13 12:40:52;;;;;;;;;;;16.60;1.00;;;;;;5133185;27;19999;-70
2022/03/13 12:43:20;;;;;;;;;;;16.60;1.00;;;;;;5134192;27;19908;-71
2022/03/13 12:45:46;;;;;;;;;;;;;;;;;;5114627;27;19911;-72
2022/03/13 12:48:14;;;;;;;;;;;16.70;1.00;;;;;;5115602;27;19914;-70
2022/03/13 12:50:40;;;;;;;;;;;16.70;1.00;;;;;;5115426;27;19915;-70
2022/03/13 12:53:06;;;;;;;;;;;16.80;1.00;;;;;;5133037;27;19908;-70
2022/03/13 12:55:31;;;;;;;;;;;16.90;1.00;;;;;;5133760;27;19911;-70
2022/03/13 12:57:59;;;;;;;;;;;;;;;;;;5132792;27;20367;-72
2022/03/13 13:00:35;;;;;;;;;;;16.80;1.00;;;;;;5133641;27;19914;-70
2022/03/13 13:03:03;;;;;;;;;;;16.80;1.00;;;;;;5132780;27;19912;-70
2022/03/13 13:05:29;;;;;;;;;;;16.80;1.00;;;;;;5133553;27;20424;-70
2022/03/13 13:07:55;;;;;;;;;;;16.80;1.00;;;;;;5132566;27;19907;-70
2022/03/13 13:10:21;;;;;;;;;;;;;;;;;;5133460;27;19964;-70
2022/03/13 13:12:47;;;;;;;;;;;;;;;;;;5114498;27;19972;-77
2022/03/13 13:15:13;;;;;;;;;;;16.70;1.00;;;;;;5133460;27;19908;-70
2022/03/13 13:17:39;;;;;;;;;;;16.70;1.00;;;;;;5133485;27;19907;-70
2022/03/13 13:20:06;;;;;;;;;;;16.80;1.00;;;;;;5114204;28;20161;-70
2022/03/13 13:22:35;;;;;;;;;;;16.90;1.00;;;;;;5133461;27;19908;-70
2022/03/13 13:25:11;;;;;;;;;;;16.90;1.00;;;;;;5132482;27;19924;-70
2022/03/13 13:27:37;;;;;;;;;;;16.90;1.00;;;;;;5133383;28;19911;-70
2022/03/13 13:30:21;;;;;;;;;;;16.80;1.00;;;;;;5132390;28;20221;-70
2022/03/13 13:32:47;;;;;;;;;;;;;;;;;;5114266;28;20286;-76
2022/03/13 13:35:15;;;;;;;;;;;16.80;1.00;;;;;;5133240;28;20002;-71
2022/03/13 13:37:55;;;;;;;;;;;16.90;1.00;;;;;;5114769;28;20363;-71
2022/03/13 13:40:21;;;;;;;;;;;;;;;;;;5133202;28;19911;-70
2022/03/13 13:42:47;;;;;;;;;;;;;;;;;;5114282;28;20356;-76
2022/03/13 13:45:21;;;;;;;;;;;17.30;1.00;;;;;;5133228;28;19981;-71
2022/03/13 13:47:47;;;;;;;;;;;;;;;;;;5135295;27;19914;-77
2022/03/13 13:50:24;;;;;;;;;;;17.90;1.00;;;;;;5136988;27;19908;-71
2022/03/13 13:52:59;;;;;;;;;;;17.60;1.00;;;;;;5136621;27;19977;-71
2022/03/13 13:55:26;;;;;;;;;;;;;;;;;;5137393;27;19919;-71
2022/03/13 13:58:10;;;;;;;;;;;17.60;1.00;;;;;;5136376;27;20402;-71
2022/03/13 14:00:39;;;;;;;;;;;17.50;1.00;;;;;;5137036;27;19952;-70
2022/03/13 14:03:04;;;;;;;;;;;17.40;1.00;;;;;;5136312;27;19907;-70
2022/03/13 14:05:32;;;;;;;;;;;17.20;1.00;;;;;;5137073;27;19918;-70
2022/03/13 14:07:57;;;;;;;;;;;17.20;1.00;;;;;;5136318;27;19952;-72
2022/03/13 14:10:23;;;;;;;;;;;17.30;1.00;;;;;;5136955;27;20337;-72
2022/03/13 14:12:49;;;;;;;;;;;;;;;;;;5136283;27;19994;-77
2022/03/13 14:15:15;;;;;;;;;;;17.30;1.00;;;;;;5136797;27;19949;-70
2022/03/13 14:17:44;;;;;;;;;;;17.30;1.00;;;;;;5136991;27;20359;-70
2022/03/13 14:20:09;;;;;;;;;;;17.20;1.00;;;;;;5141088;27;19946;-70
2022/03/13 14:22:35;;;;;;;;;;;17.10;1.00;;;;;;5141749;27;19912;-70
2022/03/13 14:25:00;;;;;;;;;;;17.10;1.00;;;;;;5135624;27;19920;-70
2022/03/13 14:27:26;;;;;;;;;;;17.20;1.00;;;;;;5136772;27;19904;-70
2022/03/13 14:29:51;;;;;;;;;;;17.40;1.00;;;;;;5135697;27;19908;-71
2022/03/13 14:32:17;;;;;;;;;;;17.50;1.00;;;;;;5136518;27;19943;-70
2022/03/13 14:34:43;;;;;;;;;;;17.90;1.00;;;;;;5136695;27;19907;-70
2022/03/13 14:37:08;;;;;;;;;;;18.30;1.00;;;;;;5135622;27;19903;-70
2022/03/13 14:39:34;;;;;;;;;;;18.40;1.00;;;;;;5136423;27;19908;-70
2022/03/13 14:41:59;;;;;;;;;;;18.30;1.00;;;;;;5135587;27;20383;-70
2022/03/13 14:44:26;;;;;;;;;;;18.20;1.00;;;;;;5136276;27;19914;-70
2022/03/13 14:46:52;;;;;;;;;;;;;;;;;;5116743;27;19911;-76
2022/03/13 14:49:18;;;;;;;;;;;17.80;1.00;;;;;;5136116;27;20279;-70
2022/03/13 14:51:43;;;;;;;;;;;17.50;1.00;;;;;;5136185;27;20395;-70
2022/03/13 14:54:11;;;;;;;;;;;17.20;1.00;;;;;;5135182;27;19963;-70
2022/03/13 14:56:37;;;;;;;;;;;16.80;1.00;;;;;;5135896;27;19999;-70
2022/03/13 14:59:03;;;;;;;;;;;16.70;1.00;;;;;;5134522;27;19908;-71
2022/03/13 15:01:29;;;;;;;;;;;17.10;1.00;;;;;;5136050;27;20389;-70
2022/03/13 15:03:55;;;;;;;;;;;17.50;1.00;;;;;;5135319;27;19957;-70
2022/03/13 15:06:20;;;;;;;;;;;17.20;1.00;;;;;;5135769;27;19911;-70
2022/03/13 15:08:46;;;;;;;;;;;;;;;;;;5135709;27;20317;-70
2022/03/13 15:11:12;;;;;;;;;;;16.50;1.00;;;;;;5118546;27;19907;-71
2022/03/13 15:13:38;;;;;;;;;;;16.40;1.00;;;;;;5138817;27;19907;-70
2022/03/13 15:16:03;;;;;;;;;;;16.40;1.00;;;;;;5134852;27;19914;-70
2022/03/13 15:18:33;;;;;;;;;;;16.30;1.00;;;;;;5135789;27;19907;-70
2022/03/13 15:20:59;;;;;;;;;;;16.30;1.00;;;;;;5134750;27;20009;-70
2022/03/13 15:23:25;;;;;;;;;;;16.30;1.00;;;;;;5135682;27;20002;-70
2022/03/13 15:25:51;;;;;;;;;;;;;;;;;;5116459;27;19927;-75
2022/03/13 15:28:18;;;;;;;;;;;16.40;1.00;;;;;;5135044;27;19931;-70
2022/03/13 15:30:44;;;;;;;;;;;;;;;;;;5135234;27;19908;-70
2022/03/13 15:33:10;;;;;;;;;;;16.70;1.00;;;;;;5134784;27;19914;-70
2022/03/13 15:35:36;;;;;;;;;;;;;;;;;;5135278;27;20432;-70
2022/03/13 15:38:02;;;;;;;;;;;16.90;1.00;;;;;;5134448;27;19907;-70
2022/03/13 15:40:28;;;;;;;;;;;17.10;1.00;;;;;;5135214;27;20375;-70
2022/03/13 15:42:54;;;;;;;;;;;;;;;;;;5116271;27;19913;-74
2022/03/13 15:45:19;;;;;;;;;;;16.90;1.00;;;;;;5116394;27;19911;-70
2022/03/13 15:47:45;;;;;;;;;;;16.80;1.00;;;;;;5116759;27;19908;-71
2022/03/13 15:50:10;;;;;;;;;;;16.70;1.00;;;;;;5115766;27;19911;-70
2022/03/13 15:52:36;;;;;;;;;;;16.70;1.00;;;;;;5134966;27;19907;-71
2022/03/13 15:55:02;;;;;;;;;;;16.60;1.00;;;;;;5134028;27;19915;-71
2022/03/13 15:57:28;;;;;;;;;;;16.50;1.00;;;;;;5134939;27;19907;-71
2022/03/13 15:59:56;;;;;;;;;;;;;;;;;;5134176;27;20019;-75
2022/03/13 16:02:25;;;;;;;;;;;16.30;1.00;;;;;;5134727;27;19907;-70
2022/03/13 16:04:51;;;;;;;;;;;16.20;1.00;;;;;;5134665;27;19949;-70
2022/03/13 16:07:19;;;;;;;;;;;16.10;1.00;;;;;;5133942;27;19939;-70
2022/03/13 16:09:45;;;;;;;;;;;15.90;1.00;;;;;;5134035;27;20306;-70
2022/03/13 16:12:20;;;;;;;;;;;15.80;1.00;;;;;;5133750;27;19968;-70
2022/03/13 16:14:47;;;;;;;;;;;15.80;1.00;;;;;;5116008;27;19963;-70
2022/03/13 16:17:13;;;;;;;;;;;15.70;1.00;;;;;;5133672;27;19922;-70
2022/03/13 16:19:38;;;;;;;;;;;15.70;1.00;;;;;;5134424;27;19908;-70
2022/03/13 16:22:05;;;;;;;;;;;;;;;;;;5133601;27;19907;-71
2022/03/13 16:24:31;;;;;;;;;;;15.50;1.00;;;;;;5136749;27;19915;-70
2022/03/13 16:26:56;;;;;;;;;;;;;;;;;;5144723;27;20364;-75
2022/03/13 16:29:23;;;;;;;;;;;;;;;;;;5125079;27;19953;-71
2022/03/13 16:31:49;;;;;;;;;;;15.40;1.00;;;;;;5135759;27;19907;-70
2022/03/13 16:34:15;;;;;;;;;;;15.30;1.00;;;;;;5133334;27;19933;-70
2022/03/13 16:36:40;;;;;;;;;;;15.20;1.00;;;;;;5134030;27;20086;-70
2022/03/13 16:39:06;;;;;;;;;;;15.10;1.00;;;;;;5133304;27;19908;-70
2022/03/13 16:41:31;;;;;;;;;;;15.10;1.00;;;;;;5134060;27;19955;-70
2022/03/13 16:43:57;;;;;;;;;;;;;;;;;;5133641;27;20260;-75
2022/03/13 16:46:23;;;;;;;;;;;15.10;1.00;;;;;;5133580;27;19979;-70
2022/03/13 16:48:48;;;;;;;;;;;15.00;1.00;;;;;;5133857;27;19908;-70
2022/03/13 16:51:14;;;;;;;;;;;15.00;1.00;;;;;;5133008;27;19915;-70
2022/03/13 16:53:39;;;;;;;;;;;15.00;1.00;;;;;;5115319;27;19955;-70
2022/03/13 16:56:05;;;;;;;;;;;14.90;1.00;;;;;;5133005;27;19916;-70
2022/03/13 16:58:31;;;;;;;;;;;14.90;1.00;;;;;;5133832;27;20287;-70
2022/03/13 17:00:57;;;;;;;;;;;;;;;;;;5133530;27;19952;-75
2022/03/13 17:03:23;;;;;;;;;;;14.90;1.00;;;;;;5133257;27;20332;-70
2022/03/13 17:05:48;;;;;;;;;;;14.80;1.00;;;;;;5133364;27;19912;-70
2022/03/13 17:08:14;;;;;;;;;;;14.70;1.00;;;;;;5114244;27;19915;-70
2022/03/13 17:10:39;;;;;;;;;;;14.70;1.00;;;;;;5133820;27;19914;-70
2022/03/13 17:13:05;;;;;;;;;;;14.70;1.00;;;;;;5132674;27;20290;-70
2022/03/13 17:15:30;;;;;;;;;;;14.60;1.00;;;;;;5133690;27;20387;-70
2022/03/13 17:17:56;;;;;;;;;;;14.60;1.00;;;;;;5133313;27;20252;-70
2022/03/13 17:20:23;;;;;;;;;;;14.50;1.00;;;;;;5132400;27;20413;-70
2022/03/13 17:22:49;;;;;;;;;;;14.50;1.00;;;;;;5133430;27;19956;-70
2022/03/13 17:25:15;;;;;;;;;;;14.40;1.00;;;;;;5132367;27;19923;-70
2022/03/13 17:27:41;;;;;;;;;;;14.40;1.00;;;;;;5114906;28;20381;-70
2022/03/13 17:30:07;;;;;;;;;;;14.40;1.00;;;;;;5132456;27;19907;-70
2022/03/13 17:32:33;;;;;;;;;;;14.20;1.00;;;;;;5114962;28;19907;-70
2022/03/13 17:34:59;;;;;;;;;;;;;;;;;;5133385;28;19908;-74
2022/03/13 17:37:24;;;;;;;;;;;14.20;1.00;;;;;;5132759;28;19907;-70
2022/03/13 17:39:50;;;;;;;;;;;14.20;1.00;;;;;;5133270;28;20377;-70
2022/03/13 17:42:15;;;;;;;;;;;14.00;1.00;;;;;;5132458;28;19907;-70
2022/03/13 17:44:41;;;;;;;;;;;14.10;1.00;;;;;;5133208;28;19916;-70
2022/03/13 17:47:06;;;;;;;;;;;14.10;1.00;;;;;;5114141;28;20329;-70
2022/03/13 17:49:32;;;;;;;;;;;14.10;1.00;;;;;;5133301;28;19934;-70
2022/03/13 17:51:57;;;;;;;;;;;14.10;1.00;;;;;;5133119;28;19915;-71
2022/03/13 17:54:23;;;;;;;;;;;14.00;1.00;;;;;;5113814;28;19915;-71
2022/03/13 17:56:50;;;;;;;;;;;14.00;1.00;;;;;;5133070;28;19908;-71
2022/03/13 17:59:16;;;;;;;;;;;14.00;1.00;;;;;;5132154;27;19990;-70
2022/03/13 18:01:41;;;;;;;;;;;13.80;1.00;;;;;;5114590;28;19953;-70
2022/03/13 18:04:07;;;;;;;;;;;13.80;1.00;;;;;;5132208;28;20340;-70
2022/03/13 18:06:34;;;;;;;;;;;13.80;1.00;;;;;;5133061;28;19916;-71
2022/03/13 18:09:00;;;;;;;;;;;13.70;1.00;;;;;;5133039;28;19914;-71
2022/03/13 18:11:26;;;;;;;;;;;13.70;1.00;;;;;;5132303;28;19907;-71
2022/03/13 18:13:51;;;;;;;;;;;13.60;1.00;;;;;;5133156;28;19911;-70
2022/03/13 18:16:17;;;;;;;;;;;13.50;1.00;;;;;;5113764;28;19908;-71
2022/03/13 18:18:42;;;;;;;;;;;13.50;1.00;;;;;;5132865;28;19922;-70
2022/03/13 18:21:09;;;;;;;;;;;13.30;1.00;;;;;;5131912;27;19998;-71
2022/03/13 18:23:34;;;;;;;;;;;13.30;1.00;;;;;;5132877;28;19914;-71
2022/03/13 18:26:00;;;;;;;;;;;13.20;1.00;;;;;;5132653;28;19923;-70
2022/03/13 18:28:26;;;;;;;;;;;13.10;1.00;;;;;;5132157;28;19968;-71
2022/03/13 18:30:52;;;;;;;;;;;13.10;1.00;;;;;;5132639;27;20001;-70
2022/03/13 18:33:23;;;;;;;;;;;13.00;1.00;;;;;;5132446;27;19954;-71
2022/03/13 18:35:48;;;;;;;;;;;13.00;1.00;;;;;;5142291;27;20383;-71
2022/03/13 18:38:14;;;;;;;;;;;12.90;1.00;;;;;;5150287;27;19949;-70
2022/03/13 18:40:40;;;;;;;;;;;;;;;;;;5150814;27;20279;-70
2022/03/13 18:43:06;;;;;;;;;;;;;;;;;;5152125;27;20309;-77
2022/03/13 18:45:31;;;;;;;;;;;12.80;1.00;;;;;;5130505;27;20353;-71
2022/03/13 18:47:57;;;;;;;;;;;12.70;1.00;;;;;;5146838;27;20382;-71
2022/03/13 18:50:23;;;;;;;;;;;12.70;1.00;;;;;;5145889;27;20082;-71
2022/03/13 18:52:49;;;;;;;;;;;12.70;1.00;;;;;;5136169;27;19915;-70
2022/03/13 18:55:15;;;;;;;;;;;12.60;1.00;;;;;;5116924;27;20332;-71
2022/03/13 18:57:40;;;;;;;;;;;12.60;1.00;;;;;;5136321;27;20018;-70
2022/03/13 19:00:07;;;;;;;;;;;;;;;;;;5135575;27;19939;-76
2022/03/13 19:02:33;;;;;;;;;;;12.50;1.00;;;;;;5135855;27;19914;-68
2022/03/13 19:04:58;;;;;;;;;;;12.50;1.00;;;;;;5135901;27;19908;-70
2022/03/13 19:10:27;;;;;;;;;;;12.50;1.00;;;;;;5135011;27;19910;-69
2022/03/13 19:12:52;;;;;;;;;;;;;;;;;;5117468;27;19908;-70
2022/03/13 19:15:19;;;;;;;;;;;12.40;1.00;;;;;;5147406;27;19998;-70
2022/03/13 19:17:45;;;;;;;;;;;12.40;1.00;;;;;;5141139;27;20002;-70
2022/03/13 19:20:13;;;;;;;;;;;12.40;1.00;;;;;;5134967;27;19911;-70
2022/03/13 19:22:39;;;;;;;;;;;12.30;1.00;;;;;;5135596;27;19907;-70
2022/03/13 19:25:06;;;;;;;;;;;12.30;1.00;;;;;;5147196;27;21255;-70
2022/03/13 19:27:32;;;;;;;;;;;;;;;;;;5155860;27;19907;-70
2022/03/13 19:29:59;;;;;;;;;;;12.30;1.00;;;;;;5156241;27;19997;-70
2022/03/13 19:32:26;;;;;;;;;;;12.20;1.00;;;;;;5136817;27;19907;-70
2022/03/13 19:34:53;;;;;;;;;;;12.30;1.00;;;;;;5144921;27;19912;-70
2022/03/13 19:37:19;;;;;;;;;;;12.20;1.00;;;;;;5134751;27;19908;-70
2022/03/13 19:39:44;;;;;;;;;;;12.20;1.00;;;;;;5135136;27;19997;-70
2022/03/13 19:42:10;;;;;;;;;;;;;;;;;;5134309;27;19908;-75
2022/03/13 19:44:36;;;;;;;;;;;12.20;1.00;;;;;;5135238;27;20278;-70
2022/03/13 19:47:03;;;;;;;;;;;12.10;1.00;;;;;;5145076;27;19918;-70
2022/03/13 19:49:29;;;;;;;;;;;12.20;1.00;;;;;;5136441;27;20415;-70
2022/03/13 19:51:54;;;;;;;;;;;12.20;1.00;;;;;;5155768;27;19932;-70
2022/03/13 19:54:20;;;;;;;;;;;12.20;1.00;;;;;;5154856;27;19907;-70
2022/03/13 19:56:46;;;;;;;;;;;12.20;1.00;;;;;;5155560;27;19911;-70
2022/03/13 19:59:14;;;;;;;;;;;;;;;;;;5136192;27;19918;-75
2022/03/13 20:01:40;;;;;;;;;;;12.10;1.00;;;;;;5134917;27;19907;-70
2022/03/13 20:04:05;;;;;;;;;;;12.00;1.00;;;;;;5134730;27;19953;-70
2022/03/13 20:06:31;;;;;;;;;;;12.00;1.00;;;;;;5136735;27;19980;-70
2022/03/13 20:08:57;;;;;;;;;;;12.00;1.00;;;;;;5153593;27;19911;-70
2022/03/13 20:11:23;;;;;;;;;;;12.00;1.00;;;;;;5154704;27;20464;-70
2022/03/13 20:13:49;;;;;;;;;;;12.00;1.00;;;;;;5155360;27;19957;-70
2022/03/13 20:16:14;;;;;;;;;;;11.80;1.00;;;;;;5154451;27;20317;-71
2022/03/13 20:18:40;;;;;;;;;;;11.80;1.00;;;;;;5134483;27;19915;-70
2022/03/13 20:21:06;;;;;;;;;;;11.90;1.00;;;;;;5141689;27;19963;-70
2022/03/13 20:23:32;;;;;;;;;;;11.90;1.00;;;;;;5154436;27;20347;-70
2022/03/13 20:25:57;;;;;;;;;;;11.80;1.00;;;;;;5155060;27;19944;-70
2022/03/13 20:28:23;;;;;;;;;;;11.80;1.00;;;;;;5154230;27;19907;-70